sensor_id;sensor_type;location;lat;lon;timestamp;pressure;altitude;pressure_sealevel;temperature;humidity
71772;BME280;59606;52.138;5.424;2023-05-22T00:01:19;101655.91;;;17.15;96.29
71772;BME280;59606;52.138;5.424;2023-05-22T00:03:47;101661.94;;;17.17;96.27
71772;BME280;59606;52.138;5.424;2023-05-22T00:06:14;101659.38;;;17.15;95.72
71772;BME280;59606;52.138;5.424;2023-05-22T00:08:40;101656.88;;;17.14;96.43
71772;BME280;59606;52.138;5.424;2023-05-22T00:11:07;101653.63;;;17.10;96.17
71772;BME280;59606;52.138;5.424;2023-05-22T00:13:34;101653.06;;;17.05;95.39
71772;BME280;59606;52.138;5.424;2023-05-22T00:16:01;101653.19;;;17.04;95.21
71772;BME280;59606;52.138;5.424;2023-05-22T00:18:28;101643.16;;;16.96;96.03
71772;BME280;59606;52.138;5.424;2023-05-22T00:20:55;101656.34;;;16.96;96.37
71772;BME280;59606;52.138;5.424;2023-05-22T00:23:23;101645.59;;;16.99;97.19
71772;BME280;59606;52.138;5.424;2023-05-22T00:25:51;101636.22;;;16.95;96.37
71772;BME280;59606;52.138;5.424;2023-05-22T00:28:18;101630.22;;;16.93;97.16
71772;BME280;59606;52.138;5.424;2023-05-22T00:30:45;101624.31;;;16.89;96.58
71772;BME280;59606;52.138;5.424;2023-05-22T00:33:11;101628.88;;;16.87;96.36
71772;BME280;59606;52.138;5.424;2023-05-22T00:35:38;101632.63;;;16.83;96.78
71772;BME280;59606;52.138;5.424;2023-05-22T00:38:04;101632.97;;;16.79;97.25
71772;BME280;59606;52.138;5.424;2023-05-22T00:40:31;101628.88;;;16.75;97.29
71772;BME280;59606;52.138;5.424;2023-05-22T00:42:58;101621.97;;;16.72;97.72
71772;BME280;59606;52.138;5.424;2023-05-22T00:45:24;101619.34;;;16.72;97.50
71772;BME280;59606;52.138;5.424;2023-05-22T00:47:51;101620.09;;;16.74;98.70
71772;BME280;59606;52.138;5.424;2023-05-22T00:50:18;101621.03;;;16.73;98.52
71772;BME280;59606;52.138;5.424;2023-05-22T00:52:45;101614.22;;;16.70;98.27
71772;BME280;59606;52.138;5.424;2023-05-22T00:55:13;101608.81;;;16.72;98.33
71772;BME280;59606;52.138;5.424;2023-05-22T00:57:41;101607.25;;;16.69;98.11
71772;BME280;59606;52.138;5.424;2023-05-22T01:00:09;101612.63;;;16.68;97.91
71772;BME280;59606;52.138;5.424;2023-05-22T01:02:38;101605.78;;;16.65;98.44
71772;BME280;59606;52.138;5.424;2023-05-22T01:05:09;101600.19;;;16.57;98.11
71772;BME280;59606;52.138;5.424;2023-05-22T01:07:38;101604.06;;;16.52;98.40
71772;BME280;59606;52.138;5.424;2023-05-22T01:10:05;101590.94;;;16.52;99.23
71772;BME280;59606;52.138;5.424;2023-05-22T01:12:54;101592.72;;;16.51;98.91
71772;BME280;59606;52.138;5.424;2023-05-22T01:15:42;101597.22;;;16.49;99.15
71772;BME280;59606;52.138;5.424;2023-05-22T01:18:56;101599.22;;;16.45;99.05
71772;BME280;59606;52.138;5.424;2023-05-22T01:21:51;101579.97;;;16.45;99.17
71772;BME280;59606;52.138;5.424;2023-05-22T01:24:44;101580.94;;;16.44;99.27
71772;BME280;59606;52.138;5.424;2023-05-22T01:32:33;101582.72;;;16.43;99.75
71772;BME280;59606;52.138;5.424;2023-05-22T01:35:01;101577.47;;;16.43;100.00
71772;BME280;59606;52.138;5.424;2023-05-22T01:37:29;101583.84;;;16.39;99.79
71772;BME280;59606;52.138;5.424;2023-05-22T01:39:56;101584.19;;;16.35;100.00
71772;BME280;59606;52.138;5.424;2023-05-22T01:42:23;101579.97;;;16.32;99.99
71772;BME280;59606;52.138;5.424;2023-05-22T01:44:50;101576.50;;;16.32;99.67
71772;BME280;59606;52.138;5.424;2023-05-22T01:47:16;101573.78;;;16.33;99.55
71772;BME280;59606;52.138;5.424;2023-05-22T01:49:43;101573.03;;;16.31;99.27
71772;BME280;59606;52.138;5.424;2023-05-22T01:52:19;101574.19;;;16.27;99.34
71772;BME280;59606;52.138;5.424;2023-05-22T01:57:35;101558.06;;;16.19;99.10
71772;BME280;59606;52.138;5.424;2023-05-22T02:00:12;101557.53;;;16.14;99.36
71772;BME280;59606;52.138;5.424;2023-05-22T02:03:10;101547.31;;;16.09;99.65
71772;BME280;59606;52.138;5.424;2023-05-22T02:05:35;101547.44;;;16.08;99.78
71772;BME280;59606;52.138;5.424;2023-05-22T02:08:04;101554.69;;;16.04;99.61
71772;BME280;59606;52.138;5.424;2023-05-22T02:10:32;101552.06;;;16.04;100.00
71772;BME280;59606;52.138;5.424;2023-05-22T02:13:00;101553.19;;;16.00;100.00
71772;BME280;59606;52.138;5.424;2023-05-22T02:15:27;101552.44;;;15.98;100.00
71772;BME280;59606;52.138;5.424;2023-05-22T02:17:53;101545.72;;;15.94;100.00
71772;BME280;59606;52.138;5.424;2023-05-22T02:20:20;101544.25;;;15.90;100.00
71772;BME280;59606;52.138;5.424;2023-05-22T02:22:47;101545.16;;;15.89;100.00
71772;BME280;59606;52.138;5.424;2023-05-22T02:25:15;101536.44;;;15.88;100.00
71772;BME280;59606;52.138;5.424;2023-05-22T02:27:45;101543.50;;;15.88;100.00
71772;BME280;59606;52.138;5.424;2023-05-22T02:30:13;101548.84;;;15.86;100.00
71772;BME280;59606;52.138;5.424;2023-05-22T02:32:40;101546.31;;;15.85;100.00
71772;BME280;59606;52.138;5.424;2023-05-22T02:35:07;101538.56;;;15.83;100.00
71772;BME280;59606;52.138;5.424;2023-05-22T02:37:34;101543.06;;;15.81;100.00
71772;BME280;59606;52.138;5.424;2023-05-22T02:40:01;101538.75;;;15.80;100.00
71772;BME280;59606;52.138;5.424;2023-05-22T02:42:27;101542.09;;;15.82;100.00
71772;BME280;59606;52.138;5.424;2023-05-22T02:44:54;101539.59;;;15.81;100.00
71772;BME280;59606;52.138;5.424;2023-05-22T02:47:21;101538.75;;;15.80;100.00
71772;BME280;59606;52.138;5.424;2023-05-22T02:49:47;101532.84;;;15.76;100.00
71772;BME280;59606;52.138;5.424;2023-05-22T02:52:14;101538.94;;;15.77;100.00
71772;BME280;59606;52.138;5.424;2023-05-22T02:54:40;101527.69;;;15.75;100.00
71772;BME280;59606;52.138;5.424;2023-05-22T02:57:07;101523.38;;;15.74;100.00
71772;BME280;59606;52.138;5.424;2023-05-22T02:59:33;101528.84;;;15.71;100.00
71772;BME280;59606;52.138;5.424;2023-05-22T03:02:02;101527.88;;;15.72;100.00
71772;BME280;59606;52.138;5.424;2023-05-22T03:04:29;101527.16;;;15.70;100.00
71772;BME280;59606;52.138;5.424;2023-05-22T03:06:55;101526.41;;;15.68;100.00
71772;BME280;59606;52.138;5.424;2023-05-22T03:09:22;101527.16;;;15.70;100.00
71772;BME280;59606;52.138;5.424;2023-05-22T03:11:48;101524.53;;;15.70;100.00
71772;BME280;59606;52.138;5.424;2023-05-22T03:14:15;101520.38;;;15.66;100.00
71772;BME280;59606;52.138;5.424;2023-05-22T03:16:41;101521.50;;;15.62;100.00
71772;BME280;59606;52.138;5.424;2023-05-22T03:19:09;101519.53;;;15.65;100.00
71772;BME280;59606;52.138;5.424;2023-05-22T03:21:37;101524.78;;;15.65;100.00
71772;BME280;59606;52.138;5.424;2023-05-22T03:24:04;101519.47;;;15.67;100.00
71772;BME280;59606;52.138;5.424;2023-05-22T03:26:31;101517.84;;;15.64;100.00
71772;BME280;59606;52.138;5.424;2023-05-22T03:28:57;101516.44;;;15.59;100.00
71772;BME280;59606;52.138;5.424;2023-05-22T03:31:25;101529.78;;;15.55;100.00
71772;BME280;59606;52.138;5.424;2023-05-22T03:33:52;101521.19;;;15.53;100.00
71772;BME280;59606;52.138;5.424;2023-05-22T03:36:19;101518.63;;;15.52;100.00
71772;BME280;59606;52.138;5.424;2023-05-22T03:38:46;101525.88;;;15.48;100.00
71772;BME280;59606;52.138;5.424;2023-05-22T03:41:13;101525.22;;;15.45;100.00
71772;BME280;59606;52.138;5.424;2023-05-22T03:43:39;101526.50;;;15.39;100.00
71772;BME280;59606;52.138;5.424;2023-05-22T03:46:10;101527.84;;;15.45;100.00
71772;BME280;59606;52.138;5.424;2023-05-22T03:48:37;101533.75;;;15.48;100.00
71772;BME280;59606;52.138;5.424;2023-05-22T03:51:04;101529.53;;;15.46;100.00
71772;BME280;59606;52.138;5.424;2023-05-22T03:53:31;101535.00;;;15.43;100.00
71772;BME280;59606;52.138;5.424;2023-05-22T03:55:58;101531.75;;;15.39;100.00
71772;BME280;59606;52.138;5.424;2023-05-22T03:58:24;101526.06;;;15.45;100.00
71772;BME280;59606;52.138;5.424;2023-05-22T04:00:54;101530.28;;;15.48;100.00
71772;BME280;59606;52.138;5.424;2023-05-22T04:03:23;101520.81;;;15.45;100.00
71772;BME280;59606;52.138;5.424;2023-05-22T04:05:50;101522.72;;;15.43;100.00
71772;BME280;59606;52.138;5.424;2023-05-22T04:08:17;101525.53;;;15.40;100.00
71772;BME280;59606;52.138;5.424;2023-05-22T04:10:43;101523.75;;;15.41;100.00
71772;BME280;59606;52.138;5.424;2023-05-22T04:13:12;101522.28;;;15.37;100.00
71772;BME280;59606;52.138;5.424;2023-05-22T04:15:39;101516.38;;;15.33;100.00
71772;BME280;59606;52.138;5.424;2023-05-22T04:18:07;101519.19;;;15.30;100.00
71772;BME280;59606;52.138;5.424;2023-05-22T04:20:33;101534.63;;;15.35;100.00
71772;BME280;59606;52.138;5.424;2023-05-22T04:23:00;101528.25;;;15.39;100.00
71772;BME280;59606;52.138;5.424;2023-05-22T04:25:27;101533.31;;;15.42;100.00
71772;BME280;59606;52.138;5.424;2023-05-22T04:27:53;101548.34;;;15.40;100.00
71772;BME280;59606;52.138;5.424;2023-05-22T04:30:20;101560.06;;;15.34;100.00
71772;BME280;59606;52.138;5.424;2023-05-22T04:32:47;101563.53;;;15.35;100.00
71772;BME280;59606;52.138;5.424;2023-05-22T04:35:13;101565.00;;;15.39;100.00
71772;BME280;59606;52.138;5.424;2023-05-22T04:37:44;101564.81;;;15.42;100.00
71772;BME280;59606;52.138;5.424;2023-05-22T04:40:13;101571.78;;;15.43;100.00
71772;BME280;59606;52.138;5.424;2023-05-22T04:42:41;101573.34;;;15.45;100.00
71772;BME280;59606;52.138;5.424;2023-05-22T04:45:08;101574.41;;;15.43;100.00
71772;BME280;59606;52.138;5.424;2023-05-22T04:47:35;101585.81;;;15.42;100.00
71772;BME280;59606;52.138;5.424;2023-05-22T04:50:04;101582.28;;;15.43;100.00
71772;BME280;59606;52.138;5.424;2023-05-22T04:52:31;101587.53;;;15.43;100.00
71772;BME280;59606;52.138;5.424;2023-05-22T04:54:57;101593.34;;;15.33;100.00
71772;BME280;59606;52.138;5.424;2023-05-22T04:57:26;101590.72;;;15.33;100.00
71772;BME280;59606;52.138;5.424;2023-05-22T04:59:54;101591.44;;;15.36;100.00
71772;BME280;59606;52.138;5.424;2023-05-22T05:02:22;101596.50;;;15.39;100.00
71772;BME280;59606;52.138;5.424;2023-05-22T05:04:48;101585.09;;;15.40;100.00
71772;BME280;59606;52.138;5.424;2023-05-22T05:07:15;101590.22;;;15.41;100.00
71772;BME280;59606;52.138;5.424;2023-05-22T05:09:43;101592.78;;;15.43;100.00
71772;BME280;59606;52.138;5.424;2023-05-22T05:12:09;101587.59;;;15.41;100.00
71772;BME280;59606;52.138;5.424;2023-05-22T05:14:36;101598.03;;;15.43;100.00
71772;BME280;59606;52.138;5.424;2023-05-22T05:17:03;101589.09;;;15.45;100.00
71772;BME280;59606;52.138;5.424;2023-05-22T05:19:30;101581.78;;;15.50;100.00
71772;BME280;59606;52.138;5.424;2023-05-22T05:21:57;101581.59;;;15.53;100.00
71772;BME280;59606;52.138;5.424;2023-05-22T05:24:23;101592.75;;;15.57;100.00
71772;BME280;59606;52.138;5.424;2023-05-22T05:26:50;101576.47;;;15.65;100.00
71772;BME280;59606;52.138;5.424;2023-05-22T05:29:17;101576.22;;;15.69;100.00
71772;BME280;59606;52.138;5.424;2023-05-22T05:31:43;101579.28;;;15.76;100.00
71772;BME280;59606;52.138;5.424;2023-05-22T05:34:10;101584.06;;;15.84;100.00
71772;BME280;59606;52.138;5.424;2023-05-22T05:36:37;101578.41;;;15.90;100.00
71772;BME280;59606;52.138;5.424;2023-05-22T05:39:04;101572.09;;;15.92;100.00
71772;BME280;59606;52.138;5.424;2023-05-22T05:41:30;101569.44;;;15.92;100.00
71772;BME280;59606;52.138;5.424;2023-05-22T05:43:56;101582.84;;;16.02;100.00
71772;BME280;59606;52.138;5.424;2023-05-22T05:46:25;101576.03;;;16.12;100.00
71772;BME280;59606;52.138;5.424;2023-05-22T05:48:52;101571.22;;;16.32;100.00
71772;BME280;59606;52.138;5.424;2023-05-22T05:51:18;101575.34;;;16.61;100.00
71772;BME280;59606;52.138;5.424;2023-05-22T05:53:46;101569.25;;;16.99;100.00
71772;BME280;59606;52.138;5.424;2023-05-22T05:56:13;101575.16;;;17.39;97.95
71772;BME280;59606;52.138;5.424;2023-05-22T05:58:40;101567.78;;;17.81;95.52
71772;BME280;59606;52.138;5.424;2023-05-22T06:01:06;101557.13;;;18.29;93.27
71772;BME280;59606;52.138;5.424;2023-05-22T06:03:33;101556.63;;;18.82;90.96
71772;BME280;59606;52.138;5.424;2023-05-22T06:06:00;101563.22;;;19.10;89.22
71772;BME280;59606;52.138;5.424;2023-05-22T06:08:28;101561.63;;;19.30;88.28
71772;BME280;59606;52.138;5.424;2023-05-22T06:10:57;101561.16;;;19.25;86.84
71772;BME280;59606;52.138;5.424;2023-05-22T06:13:24;101555.06;;;18.91;89.02
71772;BME280;59606;52.138;5.424;2023-05-22T06:15:50;101553.56;;;18.53;90.51
71772;BME280;59606;52.138;5.424;2023-05-22T06:18:17;101563.91;;;18.09;90.97
71772;BME280;59606;52.138;5.424;2023-05-22T06:20:43;101571.59;;;17.64;93.98
71772;BME280;59606;52.138;5.424;2023-05-22T06:23:10;101573.75;;;17.47;95.17
71772;BME280;59606;52.138;5.424;2023-05-22T06:25:36;101569.19;;;17.37;96.70
71772;BME280;59606;52.138;5.424;2023-05-22T06:28:05;101571.34;;;17.43;98.22
71772;BME280;59606;52.138;5.424;2023-05-22T06:30:31;101580.00;;;17.46;98.72
71772;BME280;59606;52.138;5.424;2023-05-22T06:33:03;101584.22;;;17.48;98.21
71772;BME280;59606;52.138;5.424;2023-05-22T06:35:30;101580.00;;;17.46;99.04
71772;BME280;59606;52.138;5.424;2023-05-22T06:37:57;101589.03;;;17.54;99.04
71772;BME280;59606;52.138;5.424;2023-05-22T06:40:24;101580.41;;;17.52;99.04
71772;BME280;59606;52.138;5.424;2023-05-22T06:42:51;101585.66;;;17.52;100.00
71772;BME280;59606;52.138;5.424;2023-05-22T06:45:18;101603.00;;;17.67;99.99
71772;BME280;59606;52.138;5.424;2023-05-22T06:47:45;101587.69;;;17.73;99.39
71772;BME280;59606;52.138;5.424;2023-05-22T06:50:12;101593.69;;;17.75;99.60
71772;BME280;59606;52.138;5.424;2023-05-22T06:52:38;101592.69;;;17.77;98.36
71772;BME280;59606;52.138;5.424;2023-05-22T06:55:06;101597.03;;;17.89;99.02
71772;BME280;59606;52.138;5.424;2023-05-22T06:57:33;101594.56;;;17.99;99.29
71772;BME280;59606;52.138;5.424;2023-05-22T07:00:00;101589.81;;;18.04;99.20
71772;BME280;59606;52.138;5.424;2023-05-22T07:02:26;101588.38;;;18.11;99.06
71772;BME280;59606;52.138;5.424;2023-05-22T07:04:53;101590.69;;;18.27;97.58
71772;BME280;59606;52.138;5.424;2023-05-22T07:07:19;101591.56;;;18.28;97.89
71772;BME280;59606;52.138;5.424;2023-05-22T07:09:46;101587.81;;;18.30;98.12
71772;BME280;59606;52.138;5.424;2023-05-22T07:12:13;101597.44;;;18.31;96.97
71772;BME280;59606;52.138;5.424;2023-05-22T07:14:40;101603.94;;;18.38;98.67
71772;BME280;59606;52.138;5.424;2023-05-22T07:17:07;101603.63;;;18.54;98.23
71772;BME280;59606;52.138;5.424;2023-05-22T07:19:34;101594.38;;;18.60;96.86
71772;BME280;59606;52.138;5.424;2023-05-22T07:22:01;101598.13;;;18.69;93.87
71772;BME280;59606;52.138;5.424;2023-05-22T07:24:27;101595.72;;;18.66;93.67
71772;BME280;59606;52.138;5.424;2023-05-22T07:26:54;101598.22;;;18.67;94.04
71772;BME280;59606;52.138;5.424;2023-05-22T07:29:20;101597.19;;;18.81;95.29
71772;BME280;59606;52.138;5.424;2023-05-22T07:31:48;101598.63;;;18.85;93.78
71772;BME280;59606;52.138;5.424;2023-05-22T07:34:15;101602.00;;;18.98;95.01
71772;BME280;59606;52.138;5.424;2023-05-22T07:36:42;101602.13;;;19.08;93.16
71772;BME280;59606;52.138;5.424;2023-05-22T07:39:09;101598.03;;;19.15;93.26
71772;BME280;59606;52.138;5.424;2023-05-22T07:41:35;101596.09;;;19.28;92.75
71772;BME280;59606;52.138;5.424;2023-05-22T07:44:02;101593.44;;;19.40;91.99
71772;BME280;59606;52.138;5.424;2023-05-22T07:46:28;101593.66;;;19.48;92.35
71772;BME280;59606;52.138;5.424;2023-05-22T07:48:55;101598.00;;;19.49;91.38
71772;BME280;59606;52.138;5.424;2023-05-22T07:51:22;101596.53;;;19.45;90.90
71772;BME280;59606;52.138;5.424;2023-05-22T07:53:48;101598.09;;;19.47;91.16
71772;BME280;59606;52.138;5.424;2023-05-22T07:56:15;101603.72;;;19.54;91.37
71772;BME280;59606;52.138;5.424;2023-05-22T07:58:42;101606.59;;;19.73;89.79
71772;BME280;59606;52.138;5.424;2023-05-22T08:01:09;101602.88;;;19.65;88.88
71772;BME280;59606;52.138;5.424;2023-05-22T08:03:36;101609.84;;;19.77;87.75
71772;BME280;59606;52.138;5.424;2023-05-22T08:06:03;101608.88;;;19.78;87.95
71772;BME280;59606;52.138;5.424;2023-05-22T08:08:30;101605.22;;;19.90;88.50
71772;BME280;59606;52.138;5.424;2023-05-22T08:10:57;101607.06;;;20.11;89.39
71772;BME280;59606;52.138;5.424;2023-05-22T08:13:26;101616.94;;;20.09;87.19
71772;BME280;59606;52.138;5.424;2023-05-22T08:15:53;101615.59;;;20.14;87.32
71772;BME280;59606;52.138;5.424;2023-05-22T08:18:26;101620.63;;;20.17;86.29
71772;BME280;59606;52.138;5.424;2023-05-22T08:20:54;101616.97;;;20.30;87.18
71772;BME280;59606;52.138;5.424;2023-05-22T08:23:21;101611.75;;;20.39;87.04
71772;BME280;59606;52.138;5.424;2023-05-22T08:25:48;101617.72;;;20.53;87.86
71772;BME280;59606;52.138;5.424;2023-05-22T08:28:16;101622.59;;;20.57;84.65
71772;BME280;59606;52.138;5.424;2023-05-22T08:30:42;101608.66;;;20.55;84.63
71772;BME280;59606;52.138;5.424;2023-05-22T08:33:09;101612.34;;;20.64;87.12
71772;BME280;59606;52.138;5.424;2023-05-22T08:35:37;101611.31;;;20.76;84.90
71772;BME280;59606;52.138;5.424;2023-05-22T08:38:03;101610.16;;;20.79;82.97
71772;BME280;59606;52.138;5.424;2023-05-22T08:40:34;101602.13;;;20.80;84.43
71772;BME280;59606;52.138;5.424;2023-05-22T08:43:06;101600.78;;;20.95;83.90
71772;BME280;59606;52.138;5.424;2023-05-22T08:45:33;101599.41;;;21.01;84.02
71772;BME280;59606;52.138;5.424;2023-05-22T08:48:04;101606.53;;;21.01;81.81
71772;BME280;59606;52.138;5.424;2023-05-22T08:50:33;101605.44;;;21.03;84.13
71772;BME280;59606;52.138;5.424;2023-05-22T08:53:05;101601.84;;;21.14;82.72
71772;BME280;59606;52.138;5.424;2023-05-22T08:55:33;101597.50;;;21.13;81.73
71772;BME280;59606;52.138;5.424;2023-05-22T08:58:00;101598.81;;;21.28;81.47
71772;BME280;59606;52.138;5.424;2023-05-22T09:00:27;101608.94;;;21.44;78.97
71772;BME280;59606;52.138;5.424;2023-05-22T09:02:55;101606.41;;;21.42;78.01
71772;BME280;59606;52.138;5.424;2023-05-22T09:05:21;101601.50;;;21.38;78.67
71772;BME280;59606;52.138;5.424;2023-05-22T09:07:53;101600.00;;;21.55;79.19
71772;BME280;59606;52.138;5.424;2023-05-22T09:10:24;101593.34;;;21.70;78.72
71772;BME280;59606;52.138;5.424;2023-05-22T09:13:07;101602.41;;;21.77;77.23
71772;BME280;59606;52.138;5.424;2023-05-22T09:15:35;101597.41;;;21.84;77.65
71772;BME280;59606;52.138;5.424;2023-05-22T09:18:03;101596.25;;;21.96;79.94
71772;BME280;59606;52.138;5.424;2023-05-22T09:20:34;101604.22;;;22.06;75.36
71772;BME280;59606;52.138;5.424;2023-05-22T09:23:12;101593.06;;;22.02;74.21
71772;BME280;59606;52.138;5.424;2023-05-22T09:25:40;101600.63;;;22.07;75.00
71772;BME280;59606;52.138;5.424;2023-05-22T09:28:09;101588.34;;;22.16;77.04
71772;BME280;59606;52.138;5.424;2023-05-22T09:30:36;101587.66;;;22.23;74.25
71772;BME280;59606;52.138;5.424;2023-05-22T09:33:03;101584.66;;;22.36;74.17
71772;BME280;59606;52.138;5.424;2023-05-22T09:35:31;101575.84;;;22.45;75.23
71772;BME280;59606;52.138;5.424;2023-05-22T09:37:58;101576.28;;;22.50;74.16
71772;BME280;59606;52.138;5.424;2023-05-22T09:40:26;101576.53;;;22.57;74.28
71772;BME280;59606;52.138;5.424;2023-05-22T09:42:52;101574.13;;;22.64;74.01
71772;BME280;59606;52.138;5.424;2023-05-22T09:45:20;101579.72;;;22.70;73.01
71772;BME280;59606;52.138;5.424;2023-05-22T09:47:51;101572.44;;;22.63;73.65
71772;BME280;59606;52.138;5.424;2023-05-22T09:50:18;101570.75;;;22.71;72.96
71772;BME280;59606;52.138;5.424;2023-05-22T09:52:45;101577.16;;;22.78;70.63
71772;BME280;59606;52.138;5.424;2023-05-22T09:55:14;101580.75;;;22.87;70.20
71772;BME280;59606;52.138;5.424;2023-05-22T09:57:43;101579.06;;;22.86;66.64
71772;BME280;59606;52.138;5.424;2023-05-22T10:00:14;101574.47;;;22.88;69.90
71772;BME280;59606;52.138;5.424;2023-05-22T10:02:45;101574.28;;;22.99;70.84
71772;BME280;59606;52.138;5.424;2023-05-22T10:05:13;101578.31;;;23.03;70.87
71772;BME280;59606;52.138;5.424;2023-05-22T10:07:54;101575.06;;;23.10;69.26
71772;BME280;59606;52.138;5.424;2023-05-22T10:10:24;101577.31;;;23.14;69.40
71772;BME280;59606;52.138;5.424;2023-05-22T10:13:00;101572.88;;;23.05;67.71
71772;BME280;59606;52.138;5.424;2023-05-22T10:15:27;101583.03;;;23.10;68.93
71772;BME280;59606;52.138;5.424;2023-05-22T10:17:54;101575.19;;;23.18;68.60
71772;BME280;59606;52.138;5.424;2023-05-22T10:20:21;101579.91;;;23.24;66.17
71772;BME280;59606;52.138;5.424;2023-05-22T10:22:49;101579.16;;;23.32;66.41
71772;BME280;59606;52.138;5.424;2023-05-22T10:25:19;101569.91;;;23.36;65.20
71772;BME280;59606;52.138;5.424;2023-05-22T10:27:51;101568.06;;;23.36;64.21
71772;BME280;59606;52.138;5.424;2023-05-22T10:40:56;101559.78;;;23.85;63.92
71772;BME280;59606;52.138;5.424;2023-05-22T10:43:23;101546.81;;;23.90;64.20
71772;BME280;59606;52.138;5.424;2023-05-22T10:46:00;101554.19;;;23.96;63.17
71772;BME280;59606;52.138;5.424;2023-05-22T10:48:30;101549.09;;;24.03;62.47
71772;BME280;59606;52.138;5.424;2023-05-22T10:51:02;101564.16;;;24.12;63.20
71772;BME280;59606;52.138;5.424;2023-05-22T10:53:33;101553.41;;;24.21;61.36
71772;BME280;59606;52.138;5.424;2023-05-22T10:56:14;101555.41;;;24.28;62.64
71772;BME280;59606;52.138;5.424;2023-05-22T10:58:44;101556.63;;;24.33;61.50
71772;BME280;59606;52.138;5.424;2023-05-22T11:01:18;101565.13;;;24.37;61.89
71772;BME280;59606;52.138;5.424;2023-05-22T11:03:59;101559.78;;;24.29;61.52
71772;BME280;59606;52.138;5.424;2023-05-22T11:09:27;101551.06;;;24.44;62.48
71772;BME280;59606;52.138;5.424;2023-05-22T11:14:46;101554.81;;;24.60;63.06
71772;BME280;59606;52.138;5.424;2023-05-22T11:17:16;101552.31;;;24.58;60.91
71772;BME280;59606;52.138;5.424;2023-05-22T11:19:48;101550.31;;;24.60;61.98
71772;BME280;59606;52.138;5.424;2023-05-22T11:22:22;101540.75;;;24.41;60.11
71772;BME280;59606;52.138;5.424;2023-05-22T11:24:48;101553.44;;;24.30;59.55
71772;BME280;59606;52.138;5.424;2023-05-22T11:27:15;101538.16;;;24.32;60.10
71772;BME280;59606;52.138;5.424;2023-05-22T11:29:42;101537.91;;;24.43;60.22
71772;BME280;59606;52.138;5.424;2023-05-22T11:32:11;101534.63;;;24.49;60.48
71772;BME280;59606;52.138;5.424;2023-05-22T11:34:41;101535.03;;;24.62;59.26
71772;BME280;59606;52.138;5.424;2023-05-22T11:37:09;101535.56;;;24.74;57.89
71772;BME280;59606;52.138;5.424;2023-05-22T11:39:36;101529.88;;;24.69;58.00
71772;BME280;59606;52.138;5.424;2023-05-22T11:42:02;101530.22;;;24.74;58.06
71772;BME280;59606;52.138;5.424;2023-05-22T11:44:30;101533.97;;;24.89;57.99
71772;BME280;59606;52.138;5.424;2023-05-22T11:46:56;101528.19;;;25.02;57.96
71772;BME280;59606;52.138;5.424;2023-05-22T11:49:23;101530.75;;;25.12;56.50
71772;BME280;59606;52.138;5.424;2023-05-22T11:51:51;101519.91;;;25.13;58.93
71772;BME280;59606;52.138;5.424;2023-05-22T11:54:17;101521.25;;;25.17;56.93
71772;BME280;59606;52.138;5.424;2023-05-22T11:56:44;101525.78;;;25.33;56.23
71772;BME280;59606;52.138;5.424;2023-05-22T11:59:11;101524.97;;;25.33;55.00
71772;BME280;59606;52.138;5.424;2023-05-22T12:01:37;101527.81;;;25.39;54.05
71772;BME280;59606;52.138;5.424;2023-05-22T12:04:04;101528.31;;;25.43;54.34
71772;BME280;59606;52.138;5.424;2023-05-22T12:06:31;101521.66;;;25.55;57.94
71772;BME280;59606;52.138;5.424;2023-05-22T12:08:59;101525.81;;;25.58;52.83
71772;BME280;59606;52.138;5.424;2023-05-22T12:11:26;101524.81;;;25.67;52.70
71772;BME280;59606;52.138;5.424;2023-05-22T12:14:00;101527.31;;;25.77;52.50
71772;BME280;59606;52.138;5.424;2023-05-22T12:16:27;101530.38;;;25.90;55.20
71772;BME280;59606;52.138;5.424;2023-05-22T12:18:53;101525.84;;;25.91;54.24
71772;BME280;59606;52.138;5.424;2023-05-22T12:21:20;101522.16;;;25.92;56.55
71772;BME280;59606;52.138;5.424;2023-05-22T12:23:48;101522.34;;;25.90;53.47
71772;BME280;59606;52.138;5.424;2023-05-22T12:26:15;101527.69;;;25.90;53.98
71772;BME280;59606;52.138;5.424;2023-05-22T12:28:42;101523.50;;;25.88;54.25
71772;BME280;59606;52.138;5.424;2023-05-22T12:31:09;101512.97;;;26.10;53.81
71772;BME280;59606;52.138;5.424;2023-05-22T12:33:38;101520.97;;;26.19;54.46
71772;BME280;59606;52.138;5.424;2023-05-22T12:36:08;101523.16;;;26.15;53.85
71772;BME280;59606;52.138;5.424;2023-05-22T12:38:36;101528.50;;;25.99;53.42
71772;BME280;59606;52.138;5.424;2023-05-22T12:41:03;101519.16;;;25.70;53.26
71772;BME280;59606;52.138;5.424;2023-05-22T12:43:30;101522.97;;;25.51;54.39
71772;BME280;59606;52.138;5.424;2023-05-22T12:45:56;101522.63;;;25.38;54.98
71772;BME280;59606;52.138;5.424;2023-05-22T12:48:25;101521.47;;;25.40;54.90
71772;BME280;59606;52.138;5.424;2023-05-22T12:50:51;101517.66;;;25.68;55.46
71772;BME280;59606;52.138;5.424;2023-05-22T12:53:18;101519.66;;;25.82;55.27
71772;BME280;59606;52.138;5.424;2023-05-22T12:55:45;101523.00;;;25.76;54.42
71772;BME280;59606;52.138;5.424;2023-05-22T12:58:11;101524.19;;;25.81;54.93
71772;BME280;59606;52.138;5.424;2023-05-22T13:00:38;101521.19;;;25.84;53.82
71772;BME280;59606;52.138;5.424;2023-05-22T13:03:05;101531.97;;;25.58;56.16
71772;BME280;59606;52.138;5.424;2023-05-22T13:05:31;101531.44;;;25.30;57.48
71772;BME280;59606;52.138;5.424;2023-05-22T13:07:58;101537.66;;;25.05;59.51
71772;BME280;59606;52.138;5.424;2023-05-22T13:10:24;101555.09;;;24.83;61.10
71772;BME280;59606;52.138;5.424;2023-05-22T13:12:51;101537.81;;;24.53;62.06
71772;BME280;59606;52.138;5.424;2023-05-22T13:15:18;101541.56;;;24.42;62.50
71772;BME280;59606;52.138;5.424;2023-05-22T13:17:44;101536.94;;;24.26;62.77